Time;durP1;ratioP1;P1;durP2;ratioP2;P2;SDS_P1;SDS_P2;PMS_P1;PMS_P2;Temp;Humidity;BMP_temperature;BMP_pressure;BME280_temperature;BME280_humidity;BME280_pressure;Samples;Min_cycle;Max_cycle;Signal;HPM_P1;HPM_P2
2021/10/15 00:01:49;;;;;;;5.93;3.60;;;5.10;77.00;;;;;;5075077;28;20245;-63
2021/10/15 00:04:16;;;;;;;3.70;2.80;;;5.00;77.90;;;;;;5074179;28;20190;-63
2021/10/15 00:06:43;;;;;;;6.43;3.97;;;5.00;78.30;;;;;;5074811;28;20277;-63
2021/10/15 00:09:10;;;;;;;3.70;2.90;;;4.90;79.40;;;;;;5074578;28;20758;-64
2021/10/15 00:11:38;;;;;;;5.03;3.17;;;4.90;80.00;;;;;;5074453;28;20194;-63
2021/10/15 00:14:08;;;;;;;7.10;4.47;;;4.80;80.30;;;;;;5075027;28;20272;-63
2021/10/15 00:16:35;;;;;;;5.00;3.45;;;4.80;81.10;;;;;;5074460;28;20695;-63
2021/10/15 00:19:02;;;;;;;4.88;4.25;;;4.80;81.50;;;;;;5074447;28;20595;-64
2021/10/15 00:21:29;;;;;;;5.68;3.38;;;4.80;81.40;;;;;;5074613;28;20572;-63
2021/10/15 00:23:56;;;;;;;4.70;2.95;;;4.80;81.80;;;;;;5074585;28;20217;-63
2021/10/15 00:26:23;;;;;;;6.60;3.90;;;4.90;82.00;;;;;;5074663;28;20277;-63
2021/10/15 00:28:51;;;;;;;7.05;4.75;;;4.90;81.80;;;;;;5074293;28;20807;-63
2021/10/15 00:31:23;;;;;;;4.43;3.35;;;4.90;81.40;;;;;;5074035;28;20277;-63
2021/10/15 00:33:51;;;;;;;4.00;3.15;;;4.80;81.30;;;;;;5074610;28;20225;-63
2021/10/15 00:36:18;;;;;;;5.57;3.63;;;4.80;80.50;;;;;;5074215;28;20189;-63
2021/10/15 00:38:45;;;;;;;4.90;3.90;;;4.70;80.10;;;;;;5074510;28;20225;-63
2021/10/15 00:41:12;;;;;;;3.70;3.13;;;4.70;80.70;;;;;;5074313;28;20272;-64
2021/10/15 00:44:00;;;;;;;4.22;3.05;;;4.70;81.30;;;;;;5073973;28;20218;-63
2021/10/15 00:46:27;;;;;;;9.23;3.22;;;4.60;81.70;;;;;;5074209;28;20649;-63
2021/10/15 00:48:56;;;;;;;5.22;3.90;;;4.50;82.20;;;;;;5074077;28;20280;-63
2021/10/15 00:51:25;;;;;;;5.50;3.20;;;4.60;82.50;;;;;;5073879;28;20284;-63
2021/10/15 00:53:53;;;;;;;8.55;3.13;;;4.50;82.20;;;;;;5073838;28;20660;-64
2021/10/15 00:56:21;;;;;;;4.50;3.10;;;4.50;82.10;;;;;;5073780;28;20197;-63
2021/10/15 00:58:49;;;;;;;3.90;2.80;;;4.50;82.00;;;;;;5073895;28;20877;-64
2021/10/15 01:01:17;;;;;;;5.28;3.35;;;4.50;81.70;;;;;;5073827;28;20284;-63
2021/10/15 01:03:48;;;;;;;4.28;3.08;;;4.50;82.30;;;;;;5073794;28;20300;-63
2021/10/15 01:06:20;;;;;;;5.22;3.50;;;4.40;82.90;;;;;;5073936;28;20276;-63
2021/10/15 01:08:49;;;;;;;3.10;2.20;;;4.40;83.40;;;;;;5073513;28;20260;-63
2021/10/15 01:11:18;;;;;;;4.55;2.50;;;4.40;84.30;;;;;;5073583;28;20597;-63
2021/10/15 01:13:46;;;;;;;5.03;2.97;;;4.30;84.90;;;;;;5073653;28;20280;-63
2021/10/15 01:16:14;;;;;;;3.85;2.78;;;4.40;86.00;;;;;;5073384;28;20277;-63
2021/10/15 01:18:45;;;;;;;6.72;3.55;;;4.40;85.90;;;;;;5073395;28;20699;-63
2021/10/15 01:21:14;;;;;;;4.30;2.50;;;4.40;85.90;;;;;;5073633;28;20334;-63
2021/10/15 01:23:41;;;;;;;3.58;2.33;;;4.40;85.10;;;;;;5073174;28;20225;-63
2021/10/15 01:26:09;;;;;;;5.07;2.75;;;4.40;84.70;;;;;;5073512;28;20263;-64
2021/10/15 01:28:39;;;;;;;5.72;2.90;;;4.30;84.90;;;;;;5073081;28;20225;-63
2021/10/15 01:31:08;;;;;;;4.53;2.72;;;4.20;85.80;;;;;;5073363;28;20292;-64
2021/10/15 01:33:36;;;;;;;5.30;3.05;;;4.30;86.40;;;;;;5073271;28;20273;-63
2021/10/15 01:36:04;;;;;;;7.72;3.22;;;4.30;86.60;;;;;;5073074;28;20229;-63
2021/10/15 01:38:33;;;;;;;4.07;2.70;;;4.30;86.20;;;;;;5073266;28;20281;-63
2021/10/15 01:41:00;;;;;;;5.40;3.30;;;4.40;86.20;;;;;;5072968;28;20224;-64
2021/10/15 01:43:29;;;;;;;19.95;8.27;;;4.40;86.30;;;;;;5072873;28;20305;-63
2021/10/15 01:45:58;;;;;;;4.60;3.08;;;4.40;85.10;;;;;;5073071;28;20221;-63
2021/10/15 01:48:25;;;;;;;4.50;2.70;;;4.40;83.90;;;;;;5072965;28;20704;-63
2021/10/15 01:50:53;;;;;;;3.47;2.30;;;4.40;83.20;;;;;;5072909;28;20280;-63
2021/10/15 01:53:20;;;;;;;4.15;2.72;;;4.40;83.30;;;;;;5072786;28;20225;-63
2021/10/15 01:55:49;;;;;;;4.82;3.17;;;4.40;83.50;;;;;;5072864;28;20280;-65
2021/10/15 01:58:17;;;;;;;6.40;3.30;;;4.40;83.70;;;;;;5072839;28;20281;-63
2021/10/15 02:00:44;;;;;;;10.55;8.73;;;4.40;83.60;;;;;;5072868;28;20197;-63
2021/10/15 02:03:11;;;;;;;8.02;7.22;;;4.40;84.10;;;;;;5072723;28;20308;-63
2021/10/15 02:05:38;;;;;;;5.85;5.15;;;4.40;84.20;;;;;;5072989;28;20451;-63
2021/10/15 02:08:07;;;;;;;8.73;4.30;;;4.50;84.70;;;;;;5072438;28;20273;-63
2021/10/15 02:10:34;;;;;;;8.68;3.90;;;4.50;84.40;;;;;;5072641;28;20323;-64
2021/10/15 02:13:03;;;;;;;3.50;2.40;;;4.50;84.20;;;;;;5072804;28;20225;-63
2021/10/15 02:15:30;;;;;;;3.05;2.20;;;4.50;83.80;;;;;;5072420;28;20284;-63
2021/10/15 02:17:57;;;;;;;6.32;4.68;;;4.40;83.10;;;;;;5072686;28;20285;-63
2021/10/15 02:20:27;;;;;;;8.18;5.28;;;4.40;83.50;;;;;;5072559;28;20276;-63
2021/10/15 02:22:55;;;;;;;4.70;2.88;;;4.30;81.90;;;;;;5072347;28;20313;-63
2021/10/15 02:25:23;;;;;;;3.30;2.65;;;4.20;80.60;;;;;;5072491;28;20225;-63
2021/10/15 02:27:51;;;;;;;3.72;2.70;;;4.20;81.40;;;;;;5072232;28;21019;-63
2021/10/15 02:30:20;;;;;;;4.32;2.97;;;4.10;81.60;;;;;;5072528;28;20284;-63
2021/10/15 02:32:47;;;;;;;3.40;2.72;;;4.20;81.60;;;;;;5072328;28;20205;-63
2021/10/15 02:35:15;;;;;;;5.55;2.70;;;4.20;81.50;;;;;;5072417;28;20194;-63
2021/10/15 02:37:48;;;;;;;5.00;3.20;;;4.10;82.00;;;;;;5072476;28;20607;-63
2021/10/15 02:40:20;;;;;;;5.68;3.47;;;4.20;82.60;;;;;;5071950;28;20277;-63
2021/10/15 02:42:47;;;;;;;7.10;3.45;;;4.20;82.70;;;;;;5072524;28;20300;-63
2021/10/15 02:45:14;;;;;;;7.13;3.75;;;4.20;82.40;;;;;;5072318;28;20229;-64
2021/10/15 02:47:43;;;;;;;7.50;3.88;;;4.20;80.70;;;;;;5071893;28;20302;-63
2021/10/15 02:50:10;;;;;;;6.70;3.97;;;4.10;79.40;;;;;;5072103;28;20229;-64
2021/10/15 02:52:37;;;;;;;4.72;3.08;;;4.10;79.50;;;;;;5071998;28;20278;-63
2021/10/15 02:55:05;;;;;;;3.35;2.47;;;4.10;79.80;;;;;;5071882;28;20221;-63
2021/10/15 02:57:34;;;;;;;4.05;2.55;;;4.10;79.80;;;;;;5072355;28;20293;-63
2021/10/15 03:00:01;;;;;;;4.10;2.40;;;4.10;80.50;;;;;;5072297;28;20273;-64
2021/10/15 03:02:28;;;;;;;4.10;3.03;;;4.10;81.30;;;;;;5072135;28;20190;-63
2021/10/15 03:04:56;;;;;;;5.22;3.78;;;4.10;80.50;;;;;;5072243;28;20225;-63
2021/10/15 03:07:23;;;;;;;7.55;4.50;;;4.00;78.90;;;;;;5072021;28;20225;-63
2021/10/15 03:09:50;;;;;;;7.50;4.90;;;3.90;79.10;;;;;;5071695;28;20230;-63
2021/10/15 03:12:22;;;;;;;8.80;4.53;;;3.90;79.40;;;;;;5072064;28;20197;-62
2021/10/15 03:14:49;;;;;;;7.45;4.43;;;3.90;79.30;;;;;;5072182;28;20285;-62
2021/10/15 03:17:16;;;;;;;7.60;4.80;;;3.80;80.00;;;;;;5071613;28;20200;-63
2021/10/15 03:19:43;;;;;;;5.13;3.55;;;3.80;80.10;;;;;;5071682;28;20281;-63
2021/10/15 03:22:12;;;;;;;7.60;4.10;;;3.80;80.40;;;;;;5072187;28;20228;-63
2021/10/15 03:24:39;;;;;;;6.65;3.90;;;3.70;80.30;;;;;;5071757;28;20264;-63
2021/10/15 03:27:11;;;;;;;9.52;3.55;;;3.60;80.70;;;;;;5071695;28;20284;-63
2021/10/15 03:29:39;;;;;;;4.60;3.90;;;3.60;80.80;;;;;;5071764;28;20237;-62
2021/10/15 03:32:07;;;;;;;5.30;4.80;;;3.70;81.30;;;;;;5071554;28;20280;-63
2021/10/15 03:34:34;;;;;;;6.40;5.68;;;3.70;81.30;;;;;;5071674;28;20296;-63
2021/10/15 03:37:01;;;;;;;7.28;4.63;;;3.70;81.30;;;;;;5071667;28;20193;-63
2021/10/15 03:39:29;;;;;;;3.92;3.28;;;3.70;81.80;;;;;;5072041;28;20221;-63
2021/10/15 03:41:56;;;;;;;10.02;4.65;;;3.70;82.00;;;;;;5075150;28;20614;-62
2021/10/15 03:44:24;;;;;;;5.82;3.20;;;3.70;82.50;;;;;;5075024;28;20227;-63
2021/10/15 03:46:51;;;;;;;5.05;3.15;;;3.70;82.10;;;;;;5075263;28;20281;-62
2021/10/15 03:49:18;;;;;;;4.25;2.50;;;3.60;81.70;;;;;;5075044;28;20251;-63
2021/10/15 03:51:47;;;;;;;8.55;2.30;;;3.70;82.30;;;;;;5075097;28;20221;-62
2021/10/15 03:54:16;;;;;;;2.90;2.15;;;3.70;81.80;;;;;;5075041;28;20280;-63
2021/10/15 03:56:44;;;;;;;3.05;2.08;;;3.60;81.80;;;;;;5074885;28;20284;-62
2021/10/15 03:59:11;;;;;;;3.42;2.15;;;3.60;82.20;;;;;;5074707;28;20285;-62
2021/10/15 04:01:38;;;;;;;3.63;2.40;;;3.60;82.80;;;;;;5075002;28;20277;-62
2021/10/15 04:04:05;;;;;;;4.20;3.22;;;3.60;82.80;;;;;;5074749;28;20629;-64
2021/10/15 04:06:32;;;;;;;4.40;3.30;;;3.60;82.20;;;;;;5075006;28;20280;-63
2021/10/15 04:08:59;;;;;;;4.95;2.90;;;3.40;82.60;;;;;;5074272;28;20313;-62
2021/10/15 04:11:34;;;;;;;3.63;2.88;;;3.40;83.20;;;;;;5074894;28;20276;-63
2021/10/15 04:14:03;;;;;;;5.95;2.90;;;3.40;83.70;;;;;;5075024;28;20592;-63
2021/10/15 04:16:30;;;;;;;3.35;2.35;;;3.40;84.00;;;;;;5074842;28;20276;-62
2021/10/15 04:18:57;;;;;;;4.85;2.67;;;3.40;84.40;;;;;;5074093;28;20225;-62
2021/10/15 04:21:24;;;;;;;4.38;2.70;;;3.40;84.40;;;;;;5074745;28;20692;-62
2021/10/15 04:23:52;;;;;;;3.15;2.50;;;3.40;84.50;;;;;;5074475;28;20307;-62
2021/10/15 04:26:19;;;;;;;4.40;3.08;;;3.40;84.00;;;;;;5074539;28;20280;-62
2021/10/15 04:28:46;;;;;;;2.90;2.22;;;3.50;84.00;;;;;;5074293;28;20281;-62
2021/10/15 04:31:14;;;;;;;5.13;2.67;;;3.50;83.90;;;;;;5074160;28;20277;-63
2021/10/15 04:33:41;;;;;;;3.38;2.38;;;3.50;83.20;;;;;;5074391;28;20280;-63
2021/10/15 04:36:08;;;;;;;3.63;2.88;;;3.50;82.60;;;;;;5074126;28;20193;-63
2021/10/15 04:38:35;;;;;;;4.88;3.22;;;3.50;82.40;;;;;;5074136;28;20281;-63
2021/10/15 04:41:02;;;;;;;3.17;2.60;;;3.50;81.80;;;;;;5074323;28;20228;-63
2021/10/15 04:43:31;;;;;;;3.80;2.80;;;3.40;81.80;;;;;;5074255;28;20217;-63
2021/10/15 04:45:58;;;;;;;3.67;2.75;;;3.40;81.00;;;;;;5074480;28;20276;-62
2021/10/15 04:48:26;;;;;;;7.63;3.60;;;3.40;81.00;;;;;;5074067;28;20221;-62
2021/10/15 04:50:53;;;;;;;5.55;2.92;;;3.30;80.30;;;;;;5073516;28;20276;-62
2021/10/15 04:53:20;;;;;;;3.50;2.65;;;3.40;80.50;;;;;;5074016;28;20197;-63
2021/10/15 04:55:47;;;;;;;5.03;2.95;;;3.30;81.20;;;;;;5074049;28;20276;-63
2021/10/15 04:58:14;;;;;;;6.05;3.30;;;3.40;81.60;;;;;;5073823;28;20277;-62
2021/10/15 05:00:47;;;;;;;6.20;3.45;;;3.40;81.90;;;;;;5073589;28;20244;-63
2021/10/15 05:03:17;;;;;;;5.25;3.38;;;3.40;82.00;;;;;;5073607;28;20606;-62
2021/10/15 05:05:45;;;;;;;6.88;4.15;;;3.40;81.80;;;;;;5073542;28;20280;-62
2021/10/15 05:08:15;;;;;;;7.35;4.40;;;3.40;82.20;;;;;;5073582;28;20190;-62
2021/10/15 05:10:48;;;;;;;4.35;3.38;;;3.50;82.30;;;;;;5073646;28;20190;-63
2021/10/15 05:13:17;;;;;;;5.25;3.22;;;3.40;82.10;;;;;;5073366;28;20218;-62
2021/10/15 05:15:45;;;;;;;5.07;3.20;;;3.50;82.50;;;;;;5073510;28;20239;-63
2021/10/15 05:18:13;;;;;;;4.38;2.58;;;3.50;82.20;;;;;;5073127;28;20232;-62
2021/10/15 05:20:40;;;;;;;6.40;3.17;;;3.50;81.30;;;;;;5073533;28;20190;-63
2021/10/15 05:23:13;;;;;;;3.22;2.60;;;3.50;81.10;;;;;;5073288;28;20584;-63
2021/10/15 05:25:41;;;;;;;4.43;1.85;;;3.50;80.70;;;;;;5073535;28;20262;-62
2021/10/15 05:28:08;;;;;;;3.95;2.45;;;3.40;79.80;;;;;;5073129;28;20225;-63
2021/10/15 05:30:35;;;;;;;5.35;2.40;;;3.40;79.80;;;;;;5073339;28;20281;-62
2021/10/15 05:33:02;;;;;;;5.43;3.80;;;3.40;79.80;;;;;;5073341;28;20656;-63
2021/10/15 05:35:29;;;;;;;6.22;4.72;;;3.40;80.10;;;;;;5073298;28;20190;-62
2021/10/15 05:37:56;;;;;;;9.77;6.55;;;3.40;80.10;;;;;;5073048;28;20280;-63
2021/10/15 05:40:25;;;;;;;14.70;5.95;;;3.40;80.50;;;;;;5073039;28;20229;-62
2021/10/15 05:42:52;;;;;;;12.07;8.20;;;3.30;80.70;;;;;;5073053;28;20386;-62
2021/10/15 05:45:19;;;;;;;13.32;6.65;;;3.30;80.90;;;;;;5073177;28;20257;-62
2021/10/15 05:47:46;;;;;;;13.65;6.65;;;3.20;81.00;;;;;;5072875;28;20194;-63
2021/10/15 05:50:18;;;;;;;11.38;8.93;;;3.30;81.40;;;;;;5072843;28;20190;-63
2021/10/15 05:52:47;;;;;;;13.82;8.60;;;3.20;81.60;;;;;;5072981;28;20244;-63
2021/10/15 05:55:31;;;;;;;14.20;8.90;;;3.30;81.80;;;;;;5073036;28;20204;-64
2021/10/15 06:00:50;;;;;;;10.82;7.18;;;3.40;83.30;;;;;;5072843;28;20540;-64
2021/10/15 06:03:22;;;;;;;8.02;6.85;;;3.50;84.10;;;;;;5072071;28;20201;-64
2021/10/15 06:14:25;;;;;;;9.10;6.85;;;4.10;84.30;;;;;;5030168;28;20195;-63
2021/10/15 06:16:54;;;;;;;9.73;5.68;;;4.30;83.70;;;;;;5030345;28;20225;-63
2021/10/15 06:19:23;;;;;;;13.68;6.53;;;4.50;83.50;;;;;;5049709;28;20212;-64
2021/10/15 06:21:50;;;;;;;8.23;6.63;;;4.60;82.70;;;;;;5072740;28;20204;-63
2021/10/15 06:24:18;;;;;;;8.60;5.97;;;4.70;83.10;;;;;;5072741;28;20328;-63
2021/10/15 06:26:47;;;;;;;9.20;6.32;;;4.70;81.60;;;;;;5072782;28;20190;-63
2021/10/15 06:29:14;;;;;;;10.45;6.15;;;4.90;80.90;;;;;;5072684;28;20221;-63
2021/10/15 06:31:43;;;;;;;11.25;7.35;;;5.10;80.50;;;;;;5072578;28;20616;-63
2021/10/15 06:34:10;;;;;;;12.50;7.65;;;5.40;80.20;;;;;;5072387;28;20280;-63
2021/10/15 06:36:37;;;;;;;14.45;10.73;;;5.70;78.50;;;;;;5072636;28;20529;-63
2021/10/15 06:39:04;;;;;;;19.10;8.45;;;5.80;78.30;;;;;;5072552;28;20225;-64
2021/10/15 06:41:31;;;;;;;21.67;8.52;;;5.90;76.90;;;;;;5072505;28;20212;-64
2021/10/15 06:43:58;;;;;;;20.55;9.50;;;6.10;77.10;;;;;;5072512;28;20217;-63
2021/10/15 06:46:25;;;;;;;15.57;8.13;;;6.50;76.80;;;;;;5072869;28;20728;-63
2021/10/15 06:48:59;;;;;;;13.15;9.10;;;6.70;73.50;;;;;;5072467;28;20277;-64
2021/10/15 06:51:28;;;;;;;14.65;8.85;;;7.00;74.20;;;;;;5072732;28;20279;-63
2021/10/15 06:53:55;;;;;;;21.30;9.10;;;7.50;72.70;;;;;;5072419;28;20304;-64
2021/10/15 06:56:22;;;;;;;14.40;8.70;;;8.00;71.60;;;;;;5072707;28;20197;-63
2021/10/15 06:58:54;;;;;;;11.18;8.82;;;8.50;68.80;;;;;;5072515;28;20226;-64
2021/10/15 07:01:21;;;;;;;14.63;7.95;;;9.20;65.60;;;;;;5072484;28;20236;-64
2021/10/15 07:03:48;;;;;;;12.68;8.88;;;9.90;63.70;;;;;;5072434;28;20190;-64
2021/10/15 07:06:16;;;;;;;13.70;7.70;;;10.60;62.00;;;;;;5072766;28;20713;-63
2021/10/15 07:08:47;;;;;;;14.18;6.65;;;11.30;59.50;;;;;;5072411;28;20300;-63
2021/10/15 07:11:14;;;;;;;10.50;7.50;;;12.00;57.70;;;;;;5072559;28;20190;-63
2021/10/15 07:13:41;;;;;;;13.15;6.68;;;12.80;57.10;;;;;;5073537;28;20280;-64
2021/10/15 07:16:10;;;;;;;12.75;6.85;;;13.70;54.70;;;;;;5076121;28;20679;-64
2021/10/15 07:18:38;;;;;;;13.98;6.85;;;14.40;52.70;;;;;;5076228;28;20193;-64
2021/10/15 07:21:05;;;;;;;8.70;6.10;;;15.20;51.30;;;;;;5076231;28;20189;-64
2021/10/15 07:23:34;;;;;;;10.30;6.38;;;16.00;49.90;;;;;;5076012;28;20186;-64
2021/10/15 07:26:02;;;;;;;10.60;7.20;;;16.80;46.60;;;;;;5076149;28;20253;-64
2021/10/15 07:28:29;;;;;;;7.47;5.20;;;17.90;45.30;;;;;;5076016;28;20198;-64
2021/10/15 07:30:58;;;;;;;6.90;4.47;;;19.10;42.40;;;;;;5075988;28;20471;-64
2021/10/15 07:33:25;;;;;;;4.90;3.80;;;20.20;39.30;;;;;;5075754;28;20475;-64
2021/10/15 07:35:52;;;;;;;9.00;5.73;;;21.00;37.90;;;;;;5075813;28;20789;-65
2021/10/15 07:38:19;;;;;;;15.83;7.23;;;21.90;35.80;;;;;;5075804;28;20494;-64
2021/10/15 07:40:47;;;;;;;19.17;10.87;;;22.80;35.00;;;;;;5075524;28;20498;-64
2021/10/15 07:43:15;;;;;;;24.07;14.17;;;23.70;33.30;;;;;;5075745;28;20471;-63
2021/10/15 07:45:42;;;;;;;22.63;11.87;;;24.80;31.50;;;;;;5075439;28;20989;-64
2021/10/15 07:48:09;;;;;;;12.90;7.87;;;25.70;30.80;;;;;;5075509;28;20442;-65
2021/10/15 07:50:36;;;;;;;14.50;8.57;;;26.50;28.90;;;;;;5075395;28;20479;-65
2021/10/15 07:53:05;;;;;;;11.13;5.10;;;27.40;27.60;;;;;;5075236;28;20444;-65
2021/10/15 07:55:32;;;;;;;7.20;5.10;;;28.30;26.90;;;;;;5075155;28;20527;-65
2021/10/15 07:58:00;;;;;;;5.40;3.93;;;29.20;25.00;;;;;;5075409;28;20527;-64
2021/10/15 08:00:27;;;;;;;6.27;3.60;;;30.00;24.30;;;;;;5075123;28;20997;-65
2021/10/15 08:02:55;;;;;;;8.00;4.00;;;30.80;23.30;;;;;;5074934;28;20858;-62
2021/10/15 08:05:22;;;;;;;5.67;2.90;;;31.50;22.80;;;;;;5074891;28;20518;-64
2021/10/15 08:07:49;;;;;;;6.03;4.20;;;32.30;22.00;;;;;;5075054;28;21024;-64
2021/10/15 08:10:17;;;;;;;9.27;3.33;;;33.00;20.90;;;;;;5074921;28;20467;-65
2021/10/15 08:12:44;;;;;;;5.63;2.80;;;33.80;21.20;;;;;;5074877;28;20473;-65
2021/10/15 08:15:16;;;;;;;4.23;2.93;;;34.70;20.50;;;;;;5074966;28;20729;-66
2021/10/15 08:17:43;;;;;;;2.70;2.03;;;35.40;18.60;;;;;;5074648;28;21021;-66
2021/10/15 08:20:12;;;;;;;6.93;6.00;;;35.70;19.20;;;;;;5074870;28;20464;-66
2021/10/15 08:22:39;;;;;;;5.23;3.07;;;36.50;19.10;;;;;;5074775;28;20524;-65
2021/10/15 08:25:08;;;;;;;3.80;2.70;;;37.30;17.90;;;;;;5073932;28;21047;-65
2021/10/15 08:27:35;;;;;;;3.17;2.20;;;38.10;17.40;;;;;;5074487;28;20475;-65
2021/10/15 08:30:02;;;;;;;5.13;2.73;;;38.70;16.30;;;;;;5074402;28;20846;-63
2021/10/15 08:32:31;;;;;;;4.53;2.23;;;39.40;16.20;;;;;;5074341;28;20605;-63
2021/10/15 08:35:00;;;;;;;3.53;2.10;;;40.10;15.70;;;;;;5074442;28;20846;-64
2021/10/15 08:37:27;;;;;;;2.77;1.70;;;40.60;15.10;;;;;;5074387;28;20532;-63
2021/10/15 08:39:54;;;;;;;2.50;1.60;;;40.70;14.10;;;;;;5074402;28;20471;-63
2021/10/15 08:42:21;;;;;;;2.13;1.30;;;41.00;14.10;;;;;;5074436;28;20436;-63
2021/10/15 08:44:48;;;;;;;2.30;1.43;;;41.30;13.70;;;;;;5074207;28;20563;-63
2021/10/15 08:47:17;;;;;;;2.47;1.10;;;41.40;13.70;;;;;;5074458;28;20527;-63
2021/10/15 08:49:46;;;;;;;2.30;1.30;;;42.00;13.60;;;;;;5074393;28;20460;-63
2021/10/15 08:52:14;;;;;;;4.53;1.20;;;42.00;12.40;;;;;;5074221;28;20463;-64
2021/10/15 08:54:43;;;;;;;4.07;1.73;;;42.70;13.10;;;;;;5074075;28;20519;-64
2021/10/15 08:57:16;;;;;;;3.70;1.50;;;43.50;12.00;;;;;;5074460;28;20440;-63
2021/10/15 08:59:44;;;;;;;2.50;1.27;;;42.40;11.50;;;;;;5074100;28;20476;-63
2021/10/15 09:02:13;;;;;;;2.47;1.10;;;40.40;12.00;;;;;;5073958;28;21013;-65
2021/10/15 09:04:47;;;;;;;2.20;1.57;;;37.80;12.80;;;;;;5073953;28;20567;-66
2021/10/15 09:07:15;;;;;;;2.43;1.37;;;35.60;15.90;;;;;;5074141;28;20886;-65
2021/10/15 09:09:43;;;;;;;2.60;1.60;;;35.70;16.30;;;;;;5073653;28;20499;-65
2021/10/15 09:12:13;;;;;;;2.50;1.30;;;35.20;15.70;;;;;;5073777;28;20475;-65
2021/10/15 09:14:41;;;;;;;2.03;1.03;;;36.50;16.30;;;;;;5074015;28;20554;-65
2021/10/15 09:17:15;;;;;;;2.20;1.20;;;38.40;14.70;;;;;;5074007;28;20522;-65
2021/10/15 09:19:44;;;;;;;1.83;0.90;;;39.20;13.00;;;;;;5073936;28;20435;-65
2021/10/15 09:22:18;;;;;;;2.50;1.43;;;38.30;13.30;;;;;;5073711;28;20518;-66
2021/10/15 09:24:49;;;;;;;2.00;1.10;;;37.30;14.00;;;;;;5073607;28;20467;-65
2021/10/15 09:27:32;;;;;;;1.77;1.03;;;37.80;15.30;;;;;;5073737;28;20504;-65
2021/10/15 09:30:05;;;;;;;2.30;1.17;;;39.00;13.50;;;;;;5073988;28;20534;-66
2021/10/15 09:32:34;;;;;;;2.37;1.43;;;39.80;12.40;;;;;;5073395;28;20801;-66
2021/10/15 09:35:01;;;;;;;2.20;1.00;;;39.60;13.60;;;;;;5073391;28;20478;-65
2021/10/15 09:37:32;;;;;;;2.37;1.33;;;40.20;13.40;;;;;;5072464;28;20479;-65
2021/10/15 09:40:06;;;;;;;2.43;1.20;;;40.60;13.00;;;;;;5073267;28;20519;-65
2021/10/15 09:42:38;;;;;;;1.87;1.00;;;41.20;12.40;;;;;;5073538;28;20432;-64
2021/10/15 09:45:14;;;;;;;1.90;0.97;;;42.60;12.20;;;;;;5073186;28;20571;-66
2021/10/15 09:47:42;;;;;;;2.10;1.07;;;44.00;11.40;;;;;;5073184;28;20956;-66
2021/10/15 09:50:10;;;;;;;2.20;1.20;;;45.30;10.90;;;;;;5072825;28;20479;-64
2021/10/15 09:52:43;;;;;;;2.90;2.30;;;46.10;9.60;;;;;;5073271;28;20468;-64
2021/10/15 09:55:17;;;;;;;3.37;1.67;;;44.30;9.40;;;;;;5072970;28;20554;-64
2021/10/15 09:57:45;;;;;;;2.40;1.37;;;41.20;9.90;;;;;;5073063;28;20471;-65
2021/10/15 10:00:15;;;;;;;2.93;1.30;;;38.10;11.70;;;;;;5072982;28;20436;-65
2021/10/15 10:02:42;;;;;;;2.40;1.30;;;37.10;13.70;;;;;;5073105;28;20436;-66
2021/10/15 10:05:14;;;;;;;2.00;1.10;;;37.90;14.80;;;;;;5073264;28;20468;-67
2021/10/15 10:07:44;;;;;;;2.30;1.40;;;39.60;13.40;;;;;;5072987;28;20432;-66
2021/10/15 10:10:15;;;;;;;1.80;1.03;;;41.30;13.10;;;;;;5072836;28;21080;-65
2021/10/15 10:12:44;;;;;;;2.33;1.00;;;43.10;11.60;;;;;;5072938;28;20519;-66
2021/10/15 10:15:15;;;;;;;2.20;1.00;;;44.10;11.00;;;;;;5072601;28;21057;-64
2021/10/15 10:17:47;;;;;;;1.80;1.00;;;43.70;9.70;;;;;;5072945;28;20925;-64
2021/10/15 10:20:17;;;;;;;2.37;1.30;;;41.40;10.40;;;;;;5072909;28;20435;-65
2021/10/15 10:23:07;;;;;;;3.67;1.30;;;41.00;13.10;;;;;;5072620;28;20442;-65
2021/10/15 10:25:36;;;;;;;2.00;0.90;;;43.00;11.60;;;;;;5072793;28;20521;-66
2021/10/15 10:28:14;;;;;;;2.27;1.20;;;45.00;10.90;;;;;;5072581;28;20521;-67
2021/10/15 10:30:43;;;;;;;2.00;1.00;;;46.70;9.90;;;;;;5072943;28;20523;-66
2021/10/15 10:33:11;;;;;;;4.07;1.27;;;45.60;9.10;;;;;;5072504;28;20467;-66
2021/10/15 10:35:39;;;;;;;4.73;1.03;;;43.00;9.60;;;;;;5072652;28;20563;-65
2021/10/15 10:38:33;;;;;;;2.10;1.20;;;41.00;11.20;;;;;;5072559;28;20534;-65
2021/10/15 10:41:28;;;;;;;2.80;1.80;;;41.20;12.90;;;;;;5072786;28;20490;-66
2021/10/15 10:44:22;;;;;;;2.00;1.13;;;43.60;11.60;;;;;;5072757;28;20494;-65
2021/10/15 10:47:14;;;;;;;3.10;1.40;;;46.00;11.00;;;;;;5072511;28;20432;-63
2021/10/15 10:49:43;;;;;;;2.40;1.30;;;47.80;9.40;;;;;;5067320;28;20455;-65
2021/10/15 10:52:15;;;;;;;4.07;3.67;;;48.70;9.50;;;;;;5076465;28;20522;-64
2021/10/15 10:54:46;;;;;;;2.20;1.40;;;49.60;9.00;;;;;;5076646;28;20518;-64
2021/10/15 10:57:21;;;;;;;2.50;1.10;;;50.20;8.30;;;;;;5076042;28;20486;-64
2021/10/15 10:59:51;;;;;;;2.27;1.33;;;50.90;8.30;;;;;;5076342;28;20439;-64
2021/10/15 11:02:19;;;;;;;1.97;1.10;;;51.50;7.90;;;;;;5076241;28;20485;-64
2021/10/15 11:04:52;;;;;;;2.57;1.60;;;52.10;7.60;;;;;;5076271;28;20428;-64
2021/10/15 11:07:30;;;;;;;1.83;1.17;;;52.60;7.40;;;;;;5076286;28;20440;-64
2021/10/15 11:10:04;;;;;;;2.97;1.40;;;52.80;6.80;;;;;;5076376;28;20468;-64
2021/10/15 11:12:58;;;;;;;2.40;1.40;;;52.20;7.70;;;;;;5076396;28;20518;-64
2021/10/15 11:15:31;;;;;;;2.63;1.20;;;51.80;6.70;;;;;;5076253;28;20491;-64
2021/10/15 11:17:59;;;;;;;2.00;1.00;;;51.80;7.00;;;;;;5075831;28;20440;-64
2021/10/15 11:20:28;;;;;;;2.30;1.40;;;51.60;6.80;;;;;;5076222;28;20435;-64
2021/10/15 11:22:57;;;;;;;2.10;1.20;;;51.70;6.60;;;;;;5075956;28;20518;-63
2021/10/15 11:25:27;;;;;;;2.87;1.30;;;51.40;6.50;;;;;;5076078;28;20531;-63
2021/10/15 11:27:57;;;;;;;2.97;1.40;;;51.80;6.70;;;;;;5075671;28;20834;-65
2021/10/15 11:30:25;;;;;;;3.70;1.10;;;52.10;6.80;;;;;;5075569;28;20471;-64
2021/10/15 11:32:53;;;;;;;2.00;1.20;;;52.50;6.30;;;;;;5075755;28;20538;-64
2021/10/15 11:35:22;;;;;;;3.37;1.63;;;52.90;5.80;;;;;;5075531;28;20515;-64
2021/10/15 11:37:55;;;;;;;2.10;1.40;;;53.20;5.80;;;;;;5075899;28;20498;-64
2021/10/15 11:40:30;;;;;;;2.60;1.80;;;53.20;5.40;;;;;;5075988;28;20513;-64
2021/10/15 11:43:09;;;;;;;2.70;2.00;;;52.20;5.50;;;;;;5075861;28;20476;-64
2021/10/15 11:45:38;;;;;;;3.30;2.13;;;52.00;5.70;;;;;;5075957;28;20475;-64
2021/10/15 11:48:08;;;;;;;3.23;1.30;;;52.10;5.50;;;;;;5075717;28;20478;-64
2021/10/15 11:50:42;;;;;;;2.23;1.37;;;52.40;5.40;;;;;;5075564;28;20527;-64
2021/10/15 11:53:10;;;;;;;2.13;1.33;;;52.50;5.20;;;;;;5075450;28;20468;-64
2021/10/15 11:55:40;;;;;;;2.70;1.50;;;52.80;5.70;;;;;;5075762;28;20559;-64
2021/10/15 11:58:31;;;;;;;2.10;1.30;;;52.90;5.50;;;;;;5075636;28;20475;-64
2021/10/15 12:01:08;;;;;;;2.50;1.40;;;53.00;5.40;;;;;;5074731;28;20440;-64
2021/10/15 12:03:37;;;;;;;2.10;1.50;;;53.20;5.40;;;;;;5075512;28;20832;-64
2021/10/15 12:06:25;;;;;;;2.90;1.50;;;53.10;5.40;;;;;;5075535;28;20464;-64
2021/10/15 12:09:01;;;;;;;2.30;1.50;;;53.00;5.30;;;;;;5075216;28;20472;-63
2021/10/15 12:11:52;;;;;;;2.53;1.30;;;53.00;5.30;;;;;;5075307;28;20473;-64
2021/10/15 12:14:24;;;;;;;2.30;1.50;;;52.80;5.20;;;;;;5075476;28;20527;-64
2021/10/15 12:16:55;;;;;;;2.60;1.63;;;52.70;5.20;;;;;;5075147;28;20479;-64
2021/10/15 12:19:29;;;;;;;4.80;1.70;;;52.60;5.40;;;;;;5074976;28;20524;-63
2021/10/15 12:22:02;;;;;;;2.00;1.40;;;52.30;5.50;;;;;;5075408;28;20902;-63
2021/10/15 12:24:33;;;;;;;1.93;1.20;;;52.00;5.50;;;;;;5075363;28;20523;-63
2021/10/15 12:27:05;;;;;;;4.10;2.87;;;51.80;5.60;;;;;;5075120;28;20463;-63
2021/10/15 12:29:34;;;;;;;9.33;8.60;;;51.20;5.40;;;;;;5075008;28;20472;-64
2021/10/15 12:32:16;;;;;;;2.13;1.70;;;50.80;5.30;;;;;;5074868;28;20472;-63
2021/10/15 12:35:00;;;;;;;2.20;1.40;;;50.40;5.60;;;;;;5074952;28;20522;-64
2021/10/15 12:37:33;;;;;;;2.00;1.27;;;50.00;5.70;;;;;;5074890;28;20549;-63
2021/10/15 12:40:21;;;;;;;3.47;1.40;;;49.50;5.70;;;;;;5074819;28;20526;-65
2021/10/15 12:43:02;;;;;;;3.50;2.73;;;49.30;6.00;;;;;;5074776;28;20436;-63
2021/10/15 12:45:31;;;;;;;4.20;2.57;;;48.70;5.80;;;;;;5074747;28;20862;-63
2021/10/15 12:48:00;;;;;;;6.57;2.93;;;48.10;6.10;;;;;;5074550;28;20527;-64
2021/10/15 12:50:28;;;;;;;3.17;2.00;;;47.70;6.60;;;;;;5074466;28;21009;-63
2021/10/15 12:52:56;;;;;;;2.40;1.83;;;47.40;7.00;;;;;;5074540;28;20530;-63
2021/10/15 12:55:24;;;;;;;2.33;1.43;;;46.90;6.80;;;;;;5074525;28;20528;-63
2021/10/15 12:58:02;;;;;;;3.97;1.70;;;46.40;6.90;;;;;;5074586;28;20579;-63
2021/10/15 13:00:29;;;;;;;12.40;7.47;;;45.80;7.30;;;;;;5074619;28;20840;-64
2021/10/15 13:03:03;;;;;;;4.03;2.80;;;44.90;7.20;;;;;;5074418;28;20436;-66
2021/10/15 13:05:34;;;;;;;2.40;1.57;;;43.80;7.60;;;;;;5074320;28;20436;-65
2021/10/15 13:08:01;;;;;;;2.60;1.20;;;42.30;7.90;;;;;;5074044;28;20530;-65
2021/10/15 13:10:30;;;;;;;2.37;1.30;;;40.60;8.80;;;;;;5074361;28;20432;-65
2021/10/15 13:12:58;;;;;;;2.00;1.40;;;39.20;9.80;;;;;;5073717;28;20479;-65
2021/10/15 13:15:29;;;;;;;2.10;1.23;;;38.10;10.00;;;;;;5073903;28;20448;-65
2021/10/15 13:17:57;;;;;;;2.73;1.43;;;37.10;10.90;;;;;;5074161;28;20541;-64